Time,TemperatureF,DewpointF,PressureIn,WindDirection,WindDirectionDegrees,WindSpeedMPH,WindSpeedGustMPH,Humidity,HourlyPrecipIn,Conditions,Clouds,dailyrainin,SoftwareType,DateUTC
2013-11-26 00:09:00,34.9,22.4,30.20,WNW,290,1.0,6.0,60,0.00,,,0.00,VWS V14.01,2013-11-26 05:09:00,
2013-11-26 00:19:00,34.8,22.0,30.20,West,267,3.0,10.0,59,0.00,,,0.00,VWS V14.01,2013-11-26 05:19:00,
2013-11-26 00:29:00,34.7,21.5,30.20,WSW,250,2.0,5.0,58,0.00,,,0.00,VWS V14.01,2013-11-26 05:29:00,
2013-11-26 00:39:00,34.8,20.7,30.20,WSW,250,1.0,7.0,56,0.00,,,0.00,VWS V14.01,2013-11-26 05:39:00,
2013-11-26 00:49:00,34.9,20.8,30.20,West,263,0.0,9.0,56,0.00,,,0.00,VWS V14.01,2013-11-26 05:49:00,
2013-11-26 00:59:00,34.7,20.2,30.19,WSW,254,2.0,5.0,55,0.00,,,0.00,VWS V14.01,2013-11-26 05:59:00,
2013-11-26 01:09:00,34.7,20.2,30.19,WSW,250,3.0,5.0,55,0.00,,,0.00,VWS V14.01,2013-11-26 06:09:00,
2013-11-26 01:19:00,34.5,20.4,30.19,SW,232,1.0,6.0,56,0.00,,,0.00,VWS V14.01,2013-11-26 06:19:00,
2013-11-26 01:29:00,34.6,21.0,30.18,WSW,248,2.0,6.0,57,0.00,,,0.00,VWS V14.01,2013-11-26 06:29:00,
2013-11-26 01:39:00,34.6,21.0,30.18,WSW,248,2.0,7.0,57,0.00,,,0.00,VWS V14.01,2013-11-26 06:39:00,
2013-11-26 01:49:00,34.7,21.9,30.19,WNW,286,2.0,6.0,59,0.00,,,0.00,VWS V14.01,2013-11-26 06:49:00,
2013-11-26 01:59:00,34.9,22.0,30.19,WNW,292,4.0,7.0,59,0.00,,,0.00,VWS V14.01,2013-11-26 06:59:00,
2013-11-26 02:09:00,35.0,22.1,30.19,WSW,258,2.0,10.0,59,0.00,,,0.00,VWS V14.01,2013-11-26 07:09:00,
2013-11-26 02:19:00,35.1,22.2,30.19,WSW,250,1.0,7.0,59,0.00,,,0.00,VWS V14.01,2013-11-26 07:19:00,
2013-11-26 02:29:00,35.1,22.2,30.19,SW,236,3.0,4.0,59,0.00,,,0.00,VWS V14.01,2013-11-26 07:29:00,
2013-11-26 02:39:00,35.2,21.5,30.19,North,360,2.0,7.0,57,0.00,,,0.00,VWS V14.01,2013-11-26 07:39:00,
2013-11-26 02:49:00,35.2,21.5,30.19,SW,230,1.0,7.0,57,0.00,,,0.00,VWS V14.01,2013-11-26 07:49:00,
2013-11-26 02:59:00,35.1,21.8,30.18,WSW,246,1.0,7.0,58,0.00,,,0.00,VWS V14.01,2013-11-26 07:59:00,
2013-11-26 03:09:00,35.0,21.7,30.18,SW,221,0.0,5.0,58,0.00,,,0.00,VWS V14.01,2013-11-26 08:09:00,
2013-11-26 03:19:00,34.9,21.6,30.18,SW,214,1.0,5.0,58,0.00,,,0.00,VWS V14.01,2013-11-26 08:19:00,
2013-11-26 03:29:00,34.9,22.0,30.18,WSW,240,1.0,4.0,59,0.00,,,0.00,VWS V14.01,2013-11-26 08:29:00,
2013-11-26 03:39:00,35.0,21.7,30.18,WNW,285,0.0,5.0,58,0.00,,,0.00,VWS V14.01,2013-11-26 08:39:00,
2013-11-26 03:49:00,35.2,21.5,30.18,West,271,2.0,9.0,57,0.00,,,0.00,VWS V14.01,2013-11-26 08:49:00,
2013-11-26 03:59:00,35.4,21.7,30.17,SW,227,1.0,5.0,57,0.00,,,0.00,VWS V14.01,2013-11-26 08:59:00,
2013-11-26 04:09:00,35.6,21.5,30.17,NW,317,1.0,5.0,56,0.00,,,0.00,VWS V14.01,2013-11-26 09:09:00,
2013-11-26 04:19:00,35.8,21.6,30.17,WSW,246,0.0,10.0,56,0.00,,,0.00,VWS V14.01,2013-11-26 09:19:00,
2013-11-26 04:29:00,35.8,21.6,30.18,WSW,248,0.0,4.0,56,0.00,,,0.00,VWS V14.01,2013-11-26 09:29:00,
2013-11-26 04:39:00,35.8,21.6,30.18,West,261,2.0,5.0,56,0.00,,,0.00,VWS V14.01,2013-11-26 09:39:00,
2013-11-26 04:49:00,35.9,21.8,30.18,WSW,247,2.0,6.0,56,0.00,,,0.00,VWS V14.01,2013-11-26 09:49:00,
2013-11-26 04:59:00,35.9,21.8,30.18,West,267,2.0,4.0,56,0.00,,,0.00,VWS V14.01,2013-11-26 09:59:00,
2013-11-26 05:09:00,36.0,22.3,30.18,WSW,248,0.0,3.0,57,0.00,,,0.00,VWS V14.01,2013-11-26 10:09:00,
2013-11-26 05:19:00,36.0,21.8,30.18,WSW,241,0.0,5.0,56,0.00,,,0.00,VWS V14.01,2013-11-26 10:19:00,
2013-11-26 05:29:00,36.0,21.8,30.18,WNW,303,1.0,3.0,56,0.00,,,0.00,VWS V14.01,2013-11-26 10:29:00,
2013-11-26 05:39:00,36.0,22.7,30.18,WNW,293,0.0,2.0,58,0.00,,,0.00,VWS V14.01,2013-11-26 10:39:00,
2013-11-26 05:49:00,36.0,22.3,30.17,West,263,2.0,5.0,57,0.00,,,0.00,VWS V14.01,2013-11-26 10:49:00,
2013-11-26 05:59:00,36.2,22.5,30.18,WSW,242,2.0,5.0,57,0.00,,,0.00,VWS V14.01,2013-11-26 10:59:00,
2013-11-26 06:09:00,36.4,22.2,30.18,WSW,257,2.0,4.0,56,0.00,,,0.00,VWS V14.01,2013-11-26 11:09:00,
2013-11-26 06:19:00,36.6,22.4,30.19,WSW,243,0.0,3.0,56,0.00,,,0.00,VWS V14.01,2013-11-26 11:19:00,
2013-11-26 06:29:00,36.8,22.6,30.20,SW,217,3.0,5.0,56,0.00,,,0.00,VWS V14.01,2013-11-26 11:29:00,
2013-11-26 06:39:00,36.9,22.3,30.20,SSW,203,2.0,3.0,55,0.00,,,0.00,VWS V14.01,2013-11-26 11:39:00,
2013-11-26 06:49:00,36.8,22.2,30.19,West,266,0.0,6.0,55,0.00,,,0.00,VWS V14.01,2013-11-26 11:49:00,
2013-11-26 06:59:00,36.8,22.2,30.19,SW,230,1.0,3.0,55,0.00,,,0.00,VWS V14.01,2013-11-26 11:59:00,
2013-11-26 07:09:00,36.6,22.8,30.19,SW,217,0.0,3.0,57,0.00,,,0.00,VWS V14.01,2013-11-26 12:09:00,
2013-11-26 07:19:00,36.4,23.0,30.18,SSW,207,0.0,2.0,58,0.00,,,0.00,VWS V14.01,2013-11-26 12:19:00,
2013-11-26 07:29:00,36.3,22.5,30.19,SW,223,0.0,3.0,57,0.00,,,0.00,VWS V14.01,2013-11-26 12:29:00,
2013-11-26 07:39:00,36.4,22.2,30.19,SW,228,1.0,2.0,56,0.00,,,0.00,VWS V14.01,2013-11-26 12:39:00,
2013-11-26 07:49:00,36.4,23.9,30.19,SW,229,1.0,1.0,60,0.00,,,0.00,VWS V14.01,2013-11-26 12:49:00,
2013-11-26 07:59:00,36.6,22.8,30.18,SW,229,0.0,1.0,57,0.00,,,0.00,VWS V14.01,2013-11-26 12:59:00,
2013-11-26 08:09:00,36.7,22.5,30.18,SW,229,0.0,2.0,56,0.00,,,0.00,VWS V14.01,2013-11-26 13:09:00,
2013-11-26 08:19:00,36.9,22.7,30.19,SW,229,0.0,2.0,56,0.00,,,0.00,VWS V14.01,2013-11-26 13:19:00,
2013-11-26 08:29:00,37.2,22.1,30.19,SW,234,1.0,5.0,54,0.00,,,0.00,VWS V14.01,2013-11-26 13:29:00,
2013-11-26 08:39:00,37.7,21.2,30.19,SW,226,0.0,5.0,51,0.00,,,0.00,VWS V14.01,2013-11-26 13:39:00,
2013-11-26 08:49:00,38.0,21.5,30.19,WSW,255,1.0,4.0,51,0.00,,,0.00,VWS V14.01,2013-11-26 13:49:00,
2013-11-26 08:59:00,38.4,21.4,30.18,West,279,1.0,4.0,50,0.00,,,0.00,VWS V14.01,2013-11-26 13:59:00,
2013-11-26 09:09:00,38.7,21.2,30.18,WSW,244,0.0,3.0,49,0.00,,,0.00,VWS V14.01,2013-11-26 14:09:00,
2013-11-26 09:19:00,38.9,21.4,30.18,WSW,241,0.0,4.0,49,0.00,,,0.00,VWS V14.01,2013-11-26 14:19:00,
2013-11-26 09:29:00,39.2,21.2,30.18,West,270,3.0,4.0,48,0.00,,,0.00,VWS V14.01,2013-11-26 14:29:00,
2013-11-26 09:39:00,39.5,21.0,30.18,WSW,238,2.0,5.0,47,0.00,,,0.00,VWS V14.01,2013-11-26 14:39:00,
2013-11-26 09:49:00,39.8,20.7,30.19,West,273,1.0,5.0,46,0.00,,,0.00,VWS V14.01,2013-11-26 14:49:00,
2013-11-26 09:59:00,40.0,20.4,30.19,WNW,289,4.0,4.0,45,0.00,,,0.00,VWS V14.01,2013-11-26 14:59:00,
2013-11-26 10:09:00,40.3,21.7,30.19,South,191,2.0,4.0,47,0.00,,,0.00,VWS V14.01,2013-11-26 15:09:00,
2013-11-26 10:19:00,40.5,20.9,30.19,WSW,250,1.0,7.0,45,0.00,,,0.00,VWS V14.01,2013-11-26 15:19:00,
2013-11-26 10:29:00,40.7,22.1,30.18,SW,222,2.0,5.0,47,0.00,,,0.00,VWS V14.01,2013-11-26 15:29:00,
2013-11-26 10:39:00,40.9,22.7,30.18,ESE,120,1.0,5.0,48,0.00,,,0.00,VWS V14.01,2013-11-26 15:39:00,
2013-11-26 10:49:00,41.0,22.3,30.18,WSW,240,2.0,5.0,47,0.00,,,0.00,VWS V14.01,2013-11-26 15:49:00,
2013-11-26 10:59:00,41.3,23.1,30.16,WSW,242,1.0,5.0,48,0.00,,,0.00,VWS V14.01,2013-11-26 15:59:00,
2013-11-26 11:09:00,41.4,23.7,30.16,West,269,1.0,5.0,49,0.00,,,0.00,VWS V14.01,2013-11-26 16:09:00,
2013-11-26 11:19:00,41.6,23.9,30.16,WSW,250,0.0,5.0,49,0.00,,,0.00,VWS V14.01,2013-11-26 16:19:00,
2013-11-26 11:29:00,41.8,24.1,30.15,SW,234,1.0,4.0,49,0.00,,,0.00,VWS V14.01,2013-11-26 16:29:00,
2013-11-26 11:39:00,42.0,24.7,30.15,NE,42,0.0,4.0,50,0.00,,,0.00,VWS V14.01,2013-11-26 16:39:00,
2013-11-26 11:49:00,42.4,25.1,30.15,WSW,242,1.0,5.0,50,0.00,,,0.00,VWS V14.01,2013-11-26 16:49:00,
2013-11-26 12:00:00,42.7,25.4,30.14,South,180,1.0,5.0,50,0.00,,,0.00,VWS V14.01,2013-11-26 17:00:00,
2013-11-26 12:09:00,43.0,25.6,30.14,WNW,292,0.0,4.0,50,0.00,,,0.00,VWS V14.01,2013-11-26 17:09:00,
2013-11-26 12:19:00,43.2,25.4,30.15,NNE,27,0.0,5.0,49,0.00,,,0.00,VWS V14.01,2013-11-26 17:19:00,
2013-11-26 12:29:00,43.1,25.3,30.15,SW,227,2.0,5.0,49,0.00,,,0.00,VWS V14.01,2013-11-26 17:29:00,
2013-11-26 12:39:00,43.1,25.3,30.15,WSW,244,1.0,4.0,49,0.00,,,0.00,VWS V14.01,2013-11-26 17:39:00,
2013-11-26 12:49:00,43.2,25.8,30.14,WNW,297,0.0,2.0,50,0.00,,,0.00,VWS V14.01,2013-11-26 17:49:00,
2013-11-26 13:00:00,43.3,26.4,30.14,West,263,0.0,3.0,51,0.00,,,0.00,VWS V14.01,2013-11-26 18:00:00,
2013-11-26 13:09:00,43.1,27.6,30.14,SW,236,2.0,4.0,54,0.00,,,0.00,VWS V14.01,2013-11-26 18:09:00,
2013-11-26 13:19:00,42.8,26.9,30.13,SW,229,2.0,5.0,53,0.00,,,0.00,VWS V14.01,2013-11-26 18:19:00,
2013-11-26 13:29:00,42.6,28.0,30.12,WSW,256,0.0,2.0,56,0.00,,,0.00,VWS V14.01,2013-11-26 18:29:00,
2013-11-26 13:39:00,42.5,27.0,30.12,SW,225,0.0,3.0,54,0.00,,,0.00,VWS V14.01,2013-11-26 18:39:00,
2013-11-26 13:49:00,42.5,27.9,30.12,WSW,246,1.0,3.0,56,0.00,,,0.00,VWS V14.01,2013-11-26 18:49:00,
2013-11-26 14:00:00,42.4,27.0,30.12,West,263,1.0,3.0,54,0.00,,,0.00,VWS V14.01,2013-11-26 19:00:00,
2013-11-26 14:09:00,42.1,27.5,30.12,SSW,208,1.0,5.0,56,0.00,,,0.00,VWS V14.01,2013-11-26 19:09:00,
2013-11-26 14:19:00,41.9,27.8,30.11,WSW,238,1.0,2.0,57,0.00,,,0.00,VWS V14.01,2013-11-26 19:19:00,
2013-11-26 14:29:00,41.8,29.0,30.11,WSW,238,0.0,2.0,60,0.00,,,0.00,VWS V14.01,2013-11-26 19:29:00,
2013-11-26 14:39:00,41.8,31.7,30.11,WSW,238,0.0,1.0,67,0.00,,,0.00,VWS V14.01,2013-11-26 19:39:00,
2013-11-26 14:49:00,41.6,31.8,30.11,WSW,238,0.0,0.0,68,0.00,,,0.00,VWS V14.01,2013-11-26 19:49:00,
2013-11-26 15:00:00,41.4,33.1,30.11,WSW,238,0.0,0.0,72,0.00,,,0.00,VWS V14.01,2013-11-26 20:00:00,
2013-11-26 15:09:00,41.2,33.5,30.11,WSW,238,0.0,1.0,74,0.00,,,0.00,VWS V14.01,2013-11-26 20:09:00,
2013-11-26 15:19:00,40.9,34.6,30.10,WSW,238,0.0,1.0,78,0.00,,,0.00,VWS V14.01,2013-11-26 20:19:00,
2013-11-26 15:29:00,40.6,35.5,30.10,WSW,238,0.0,1.0,82,0.00,,,0.00,VWS V14.01,2013-11-26 20:29:00,
2013-11-26 15:39:00,40.2,35.5,30.10,WSW,238,0.0,1.0,83,0.00,,,0.00,VWS V14.01,2013-11-26 20:39:00,
2013-11-26 15:49:00,39.9,35.8,30.09,WSW,238,1.0,1.0,85,0.00,,,0.00,VWS V14.01,2013-11-26 20:49:00,
2013-11-26 16:00:00,39.5,36.0,30.08,WSW,238,0.0,1.0,87,0.01,,,0.01,VWS V14.01,2013-11-26 21:00:00,
2013-11-26 16:09:00,39.2,36.0,30.08,WSW,238,0.0,1.0,88,0.01,,,0.01,VWS V14.01,2013-11-26 21:09:00,
2013-11-26 16:19:00,38.9,35.7,30.08,WSW,238,0.0,1.0,88,0.01,,,0.01,VWS V14.01,2013-11-26 21:19:00,
2013-11-26 16:29:00,38.7,35.7,30.08,WSW,238,0.0,1.0,89,0.01,,,0.01,VWS V14.01,2013-11-26 21:29:00,
2013-11-26 16:39:00,38.5,36.1,30.08,SW,236,0.0,2.0,91,0.02,,,0.02,VWS V14.01,2013-11-26 21:39:00,
2013-11-26 16:49:00,38.4,36.0,30.07,SW,236,0.0,2.0,91,0.02,,,0.02,VWS V14.01,2013-11-26 21:49:00,
2013-11-26 17:00:00,38.3,35.9,30.07,SW,236,2.0,2.0,91,0.02,,,0.02,VWS V14.01,2013-11-26 22:00:00,
2013-11-26 17:09:00,38.2,36.1,30.07,SW,236,0.0,2.0,92,0.01,,,0.02,VWS V14.01,2013-11-26 22:09:00,
2013-11-26 17:19:00,38.1,36.0,30.06,SW,236,0.0,2.0,92,0.02,,,0.03,VWS V14.01,2013-11-26 22:19:00,
2013-11-26 17:29:00,38.1,36.3,30.06,South,171,0.0,2.0,93,0.02,,,0.03,VWS V14.01,2013-11-26 22:29:00,
2013-11-26 17:39:00,38.1,36.3,30.06,South,171,0.0,1.0,93,0.03,,,0.04,VWS V14.01,2013-11-26 22:39:00,
2013-11-26 17:49:00,38.2,36.6,30.06,ESE,109,0.0,2.0,94,0.02,,,0.04,VWS V14.01,2013-11-26 22:49:00,
2013-11-26 18:00:00,38.3,36.7,30.04,ESE,109,0.0,1.0,94,0.03,,,0.05,VWS V14.01,2013-11-26 23:00:00,
2013-11-26 18:09:00,38.3,37.0,30.04,ESE,109,1.0,1.0,95,0.03,,,0.05,VWS V14.01,2013-11-26 23:09:00,
2013-11-26 18:19:00,38.4,37.1,30.04,ESE,109,0.0,1.0,95,0.04,,,0.06,VWS V14.01,2013-11-26 23:19:00,
2013-11-26 18:29:00,38.6,37.3,30.04,ESE,109,0.0,1.0,95,0.04,,,0.07,VWS V14.01,2013-11-26 23:29:00,
2013-11-26 18:39:00,38.8,37.8,30.04,East,99,2.0,2.0,96,0.05,,,0.08,VWS V14.01,2013-11-26 23:39:00,
2013-11-26 18:49:00,39.1,38.1,30.03,ENE,70,0.0,2.0,96,0.04,,,0.08,VWS V14.01,2013-11-26 23:49:00,
2013-11-26 19:00:00,39.3,38.5,30.02,ENE,70,0.0,2.0,97,0.04,,,0.08,VWS V14.01,2013-11-27 00:00:00,
2013-11-26 19:09:00,39.6,38.8,30.02,ENE,71,0.0,2.0,97,0.04,,,0.09,VWS V14.01,2013-11-27 00:09:00,
2013-11-26 19:19:00,39.9,39.1,30.01,ENE,59,0.0,2.0,97,0.04,,,0.09,VWS V14.01,2013-11-27 00:19:00,
2013-11-26 19:29:00,40.2,39.4,30.00,ENE,73,1.0,3.0,97,0.03,,,0.09,VWS V14.01,2013-11-27 00:29:00,
2013-11-26 19:39:00,40.5,39.7,30.00,NE,54,1.0,2.0,97,0.02,,,0.09,VWS V14.01,2013-11-27 00:39:00,
2013-11-26 19:49:00,40.8,40.0,30.00,ENE,78,1.0,3.0,97,0.01,,,0.09,VWS V14.01,2013-11-27 00:49:00,
2013-11-26 20:00:00,41.1,40.3,29.98,East,80,2.0,3.0,97,0.01,,,0.09,VWS V14.01,2013-11-27 01:00:00,
2013-11-26 20:10:00,41.5,41.0,29.98,ENE,71,1.0,3.0,98,0.02,,,0.10,VWS V14.01,2013-11-27 01:10:00,
2013-11-26 20:19:00,41.9,41.4,29.96,ENE,74,1.0,4.0,98,0.01,,,0.10,VWS V14.01,2013-11-27 01:19:00,
2013-11-26 20:29:00,42.3,41.8,29.95,ENE,65,1.0,3.0,98,0.01,,,0.10,VWS V14.01,2013-11-27 01:29:00,
2013-11-26 20:39:00,42.8,42.3,29.95,ENE,74,1.0,3.0,98,0.01,,,0.10,VWS V14.01,2013-11-27 01:39:00,
2013-11-26 20:49:00,43.3,42.8,29.93,NE,52,3.0,4.0,98,0.01,,,0.10,VWS V14.01,2013-11-27 01:49:00,
2013-11-26 21:00:00,44.3,43.8,29.92,ENE,61,1.0,4.0,98,0.01,,,0.10,VWS V14.01,2013-11-27 02:00:00,
2013-11-26 21:09:00,45.0,44.7,29.92,ENE,61,2.0,3.0,99,0.00,,,0.10,VWS V14.01,2013-11-27 02:09:00,
2013-11-26 21:19:00,45.6,45.3,29.92,ENE,71,3.0,4.0,99,0.00,,,0.10,VWS V14.01,2013-11-27 02:19:00,
2013-11-26 21:29:00,46.1,45.8,29.90,ENE,66,2.0,4.0,99,0.01,,,0.11,VWS V14.01,2013-11-27 02:29:00,
2013-11-26 21:39:00,46.6,46.3,29.90,ENE,66,1.0,5.0,99,0.01,,,0.11,VWS V14.01,2013-11-27 02:39:00,
2013-11-26 21:49:00,47.1,46.8,29.88,ENE,63,0.0,5.0,99,0.02,,,0.12,VWS V14.01,2013-11-27 02:49:00,
2013-11-26 22:00:00,47.6,47.3,29.86,ENE,67,1.0,5.0,99,0.02,,,0.12,VWS V14.01,2013-11-27 03:00:00,
2013-11-26 22:09:00,48.1,47.8,29.86,NE,49,2.0,6.0,99,0.03,,,0.13,VWS V14.01,2013-11-27 03:09:00,
2013-11-26 22:19:00,48.5,48.2,29.84,ENE,67,1.0,6.0,99,0.04,,,0.14,VWS V14.01,2013-11-27 03:19:00,
2013-11-26 22:29:00,48.8,48.5,29.83,NNE,16,3.0,6.0,99,0.06,,,0.16,VWS V14.01,2013-11-27 03:29:00,
2013-11-26 22:39:00,49.3,49.0,29.83,NE,53,2.0,6.0,99,0.06,,,0.17,VWS V14.01,2013-11-27 03:39:00,
2013-11-26 22:49:00,49.5,49.2,29.81,ENE,63,4.0,7.0,99,0.08,,,0.19,VWS V14.01,2013-11-27 03:49:00,
2013-11-26 23:00:00,49.7,49.4,29.79,ENE,64,3.0,5.0,99,0.09,,,0.21,VWS V14.01,2013-11-27 04:00:00,
2013-11-26 23:09:00,49.9,49.6,29.79,NE,49,2.0,7.0,99,0.11,,,0.23,VWS V14.01,2013-11-27 04:09:00,
2013-11-26 23:19:00,50.3,50.0,29.78,NE,50,2.0,8.0,99,0.12,,,0.25,VWS V14.01,2013-11-27 04:19:00,
2013-11-26 23:29:00,50.5,50.2,29.76,ENE,74,7.0,10.0,99,0.12,,,0.26,VWS V14.01,2013-11-27 04:29:00,
2013-11-26 23:39:00,50.8,50.5,29.76,NE,51,3.0,7.0,99,0.11,,,0.27,VWS V14.01,2013-11-27 04:39:00,
2013-11-26 23:49:00,51.1,50.8,29.73,ENE,62,2.0,7.0,99,0.11,,,0.28,VWS V14.01,2013-11-27 04:49:00,